Time;durP1;ratioP1;P1;durP2;ratioP2;P2;SDS_P1;SDS_P2;PMS_P1;PMS_P2;Temp;Humidity;BMP_temperature;BMP_pressure;BME280_temperature;BME280_humidity;BME280_pressure;Samples;Min_cycle;Max_cycle;Signal;HPM_P1;HPM_P2
2022/11/24 00:01:15;;;;;;;1.37;0.57;;;12.20;99.90;;;12.94;58.08;100084.25;4804952;28;98286;-52
2022/11/24 00:03:42;;;;;;;1.43;0.80;;;12.10;99.90;;;12.73;57.68;100087.13;4823899;28;97456;-54
2022/11/24 00:06:12;;;;;;;9.13;0.70;;;12.00;99.90;;;12.55;58.10;100082.81;4823796;28;98666;-50
2022/11/24 00:08:40;;;;;;;3.03;0.43;;;11.80;99.90;;;12.47;58.82;100090.31;4820811;28;102836;-56
2022/11/24 00:11:15;;;;;;;3.87;0.40;;;11.70;99.90;;;12.37;59.28;100089.06;4821819;28;97107;-49
2022/11/24 00:13:42;;;;;;;2.53;0.70;;;11.60;99.90;;;12.32;58.84;100086.66;4818490;28;98650;-56
2022/11/24 00:16:11;;;;;;;1.03;0.40;;;11.60;99.90;;;12.41;60.69;100090.59;4821564;28;98531;-47
2022/11/24 00:18:43;;;;;;;1.23;0.60;;;11.60;99.90;;;12.45;60.69;100092.19;4821641;28;101857;-45
2022/11/24 00:21:09;;;;;;;0.57;0.50;;;11.60;99.90;;;12.51;60.60;100081.25;4824198;28;98152;-57
2022/11/24 00:23:36;;;;;;;3.23;1.10;;;11.70;99.90;;;12.42;59.27;100092.31;4824031;28;96949;-55
2022/11/24 00:26:17;;;;;;;8.63;0.97;;;11.60;99.90;;;12.47;60.08;100096.44;4828104;28;97022;-46
2022/11/24 00:28:45;;;;;;;0.90;0.60;;;11.70;99.90;;;12.61;60.91;100087.78;4824280;28;103240;-56
2022/11/24 00:31:26;;;;;;;4.20;0.60;;;11.80;99.90;;;12.78;59.87;100085.09;4824656;28;97316;-50
2022/11/24 00:33:55;;;;;;;4.87;0.90;;;11.90;99.90;;;12.82;59.66;100091.91;4820236;28;97475;-49
2022/11/24 00:36:23;;;;;;;0.30;0.30;;;12.00;99.90;;;12.96;60.66;100092.97;4819436;28;96998;-53
2022/11/24 00:38:55;;;;;;;1.97;0.50;;;12.10;99.90;;;13.04;59.43;100090.78;4820901;28;96945;-47
2022/11/24 00:41:22;;;;;;;1.40;0.40;;;12.20;99.90;;;13.20;60.10;100088.16;4819850;28;98388;-52
2022/11/24 00:43:48;;;;;;;2.60;0.50;;;12.30;99.90;;;13.27;58.05;100093.03;4823192;28;98106;-46
2022/11/24 00:46:14;;;;;;;1.90;0.80;;;12.40;99.90;;;13.22;57.61;100095.09;4818443;28;97087;-54
2022/11/24 00:48:40;;;;;;;1.40;0.67;;;12.30;99.90;;;13.13;56.94;100092.91;4821677;28;99041;-51
2022/11/24 00:51:09;;;;;;;4.13;0.43;;;12.30;99.90;;;13.17;58.08;100089.16;4806656;28;97293;-53
2022/11/24 00:53:36;;;;;;;2.90;0.90;;;12.30;99.90;;;13.17;58.96;100091.81;4803095;29;97007;-56
2022/11/24 00:56:02;;;;;;;2.37;0.80;;;12.20;99.90;;;13.10;57.90;100101.88;4822294;28;97115;-55
2022/11/24 00:58:29;;;;;;;0.43;0.20;;;12.20;99.90;;;13.01;57.86;100097.06;4817089;28;97330;-48
2022/11/24 01:01:03;;;;;;;0.30;0.30;;;12.10;99.90;;;12.96;58.52;100104.41;4823267;28;97439;-53
2022/11/24 01:03:29;;;;;;;3.27;0.80;;;12.10;99.90;;;13.02;59.53;100100.59;4816898;28;102564;-54
2022/11/24 01:05:55;;;;;;;1.23;0.87;;;12.10;99.90;;;13.03;58.14;100103.16;4821085;28;97175;-52
2022/11/24 01:08:21;;;;;;;1.53;0.47;;;12.20;99.90;;;13.01;59.04;100109.44;4821632;28;97454;-53
2022/11/24 01:10:47;;;;;;;1.03;0.50;;;12.10;99.90;;;13.05;59.56;100118.97;4824464;28;96839;-56
2022/11/24 01:13:12;;;;;;;0.20;0.20;;;12.10;99.90;;;13.02;59.54;100119.13;4824057;28;98412;-45
2022/11/24 01:15:39;;;;;;;0.47;0.40;;;12.10;99.90;;;12.97;58.39;100122.00;4821786;28;98332;-51
2022/11/24 01:18:05;;;;;;;4.00;1.07;;;12.10;99.90;;;12.92;58.92;100129.34;4824668;28;99301;-53
2022/11/24 01:20:31;;;;;;;5.00;0.40;;;12.00;99.90;;;12.92;59.05;100126.69;4841787;28;98419;-48
2022/11/24 01:22:57;;;;;;;0.70;0.23;;;12.00;99.90;;;12.82;59.28;100122.81;4851099;28;97233;-47
2022/11/24 01:25:23;;;;;;;1.13;0.47;;;11.90;99.90;;;12.89;60.41;100133.97;4851812;28;96934;-47
2022/11/24 01:27:49;;;;;;;1.10;0.60;;;12.00;99.90;;;12.91;59.91;100142.66;4846084;28;97478;-48
2022/11/24 01:30:15;;;;;;;4.73;0.70;;;12.00;99.90;;;12.95;59.33;100133.63;4853726;28;97159;-52
2022/11/24 01:32:41;;;;;;;1.43;1.00;;;12.10;99.90;;;12.97;59.67;100137.88;4852955;28;97180;-56
2022/11/24 01:35:08;;;;;;;0.50;0.50;;;12.10;99.90;;;13.06;60.45;100136.56;4840067;28;97612;-50
2022/11/24 01:37:34;;;;;;;3.10;0.43;;;12.20;99.90;;;13.12;60.13;100141.50;4840900;28;97672;-51
2022/11/24 01:40:00;;;;;;;2.60;0.67;;;12.20;99.90;;;13.06;58.40;100133.91;4845775;28;97498;-56
2022/11/24 01:42:25;;;;;;;0.90;0.70;;;12.20;99.90;;;13.10;59.12;100138.09;4844942;28;97205;-50
2022/11/24 01:45:40;;;;;;;0.30;0.30;;;12.20;99.90;;;13.15;59.48;100137.81;4831972;29;97390;-48
2022/11/24 01:48:23;;;;;;;2.83;1.10;;;12.30;99.90;;;13.07;59.12;100143.56;4826881;28;103559;-52
2022/11/24 01:51:04;;;;;;;0.60;0.37;;;12.20;99.90;;;13.03;59.89;100136.72;4844024;28;102504;-48
2022/11/24 01:53:30;;;;;;;1.23;0.63;;;12.20;99.90;;;13.03;59.93;100136.72;4829418;29;97135;-56
2022/11/24 01:55:56;;;;;;;0.80;0.60;;;12.20;99.90;;;12.98;58.62;100128.16;4844121;28;97405;-48
2022/11/24 01:58:26;;;;;;;3.40;0.87;;;12.20;99.90;;;13.00;59.35;100137.72;4814155;28;102932;-49
2022/11/24 02:00:52;;;;;;;1.00;0.63;;;12.20;99.90;;;12.92;58.88;100139.09;4833223;28;96929;-47
2022/11/24 02:03:26;;;;;;;5.60;0.80;;;12.10;99.90;;;12.88;59.74;100140.19;4856398;28;96791;-55
2022/11/24 02:06:09;;;;;;;2.07;0.40;;;12.10;99.90;;;12.93;60.20;100135.50;4850887;28;96627;-54
2022/11/24 02:09:05;;;;;;;2.80;0.87;;;12.20;99.90;;;13.01;59.66;100143.88;4848645;28;97099;-52
2022/11/24 02:11:38;;;;;;;2.07;0.70;;;12.20;99.90;;;12.97;60.06;100147.63;4855604;28;97564;-45
2022/11/24 02:14:11;;;;;;;1.23;0.60;;;12.20;99.90;;;12.98;60.36;100151.97;4841963;28;97650;-47
2022/11/24 02:16:40;;;;;;;1.70;1.03;;;12.20;99.90;;;12.91;60.47;100161.19;4830580;29;97306;-48
2022/11/24 02:19:27;;;;;;;1.33;0.50;;;12.20;99.90;;;12.93;60.50;100157.53;4845578;28;97923;-49
2022/11/24 02:21:52;;;;;;;2.03;0.43;;;12.20;99.90;;;13.06;60.51;100161.22;4822003;29;102842;-45
2022/11/24 02:24:37;;;;;;;0.83;0.47;;;12.30;99.90;;;13.08;59.93;100161.16;4842515;28;97270;-48
2022/11/24 02:27:03;;;;;;;0.60;0.60;;;12.40;99.90;;;13.15;60.27;100156.38;4822469;28;97523;-50
2022/11/24 02:29:29;;;;;;;1.33;0.73;;;12.40;99.90;;;13.17;60.03;100160.66;4840271;28;97220;-52
2022/11/24 02:32:02;;;;;;;0.40;0.40;;;12.40;99.90;;;13.19;60.16;100164.13;4845270;28;97429;-53
2022/11/24 02:34:28;;;;;;;2.40;0.40;;;12.50;99.90;;;13.16;59.46;100166.88;4821780;29;97062;-50
2022/11/24 02:36:54;;;;;;;1.33;0.50;;;12.50;99.90;;;13.19;60.01;100168.56;4845611;28;97054;-59
2022/11/24 02:39:19;;;;;;;2.30;0.70;;;12.50;99.90;;;13.25;59.91;100171.72;4840740;28;99442;-54
2022/11/24 02:41:53;;;;;;;2.80;0.63;;;12.50;99.90;;;13.31;59.36;100173.19;4845642;28;103581;-52
2022/11/24 02:44:23;;;;;;;3.70;0.50;;;12.60;99.90;;;13.33;59.23;100166.88;4837716;28;97102;-51
2022/11/24 02:47:00;;;;;;;0.97;0.43;;;12.60;99.90;;;13.39;59.58;100171.81;4813040;29;97007;-53
2022/11/24 02:49:26;;;;;;;1.83;0.23;;;12.60;99.90;;;13.42;59.68;100177.88;4841300;28;99087;-46
2022/11/24 02:51:52;;;;;;;0.50;0.47;;;12.70;99.90;;;13.45;59.05;100178.56;4847405;28;97399;-51
2022/11/24 02:54:18;;;;;;;1.40;0.70;;;12.70;99.90;;;13.48;59.20;100180.22;4838525;28;96985;-47
2022/11/24 02:56:44;;;;;;;1.70;0.77;;;12.70;99.90;;;13.51;58.15;100180.03;4844516;28;97333;-49
2022/11/24 02:59:10;;;;;;;5.70;0.40;;;12.80;99.90;;;13.51;58.30;100174.75;4844738;28;97837;-47
2022/11/24 03:01:36;;;;;;;2.60;0.60;;;12.80;99.90;;;13.55;58.15;100176.28;4843590;28;97539;-49
2022/11/24 03:04:02;;;;;;;1.10;0.43;;;12.80;99.90;;;13.51;58.82;100178.25;4844402;28;97470;-54
2022/11/24 03:06:27;;;;;;;0.63;0.50;;;12.70;99.90;;;13.52;58.81;100177.28;4836119;28;97348;-56
2022/11/24 03:08:53;;;;;;;1.70;0.57;;;12.70;99.90;;;13.44;58.64;100178.66;4838031;28;99750;-47
2022/11/24 03:11:19;;;;;;;1.27;0.40;;;12.70;99.90;;;13.45;58.74;100172.41;4836481;28;97186;-49
2022/11/24 03:13:45;;;;;;;3.93;0.83;;;12.70;99.90;;;13.36;58.30;100169.34;4840659;28;97416;-54
2022/11/24 03:16:10;;;;;;;8.27;1.07;;;12.60;99.90;;;13.36;59.08;100179.94;4844250;28;96977;-45
2022/11/24 03:18:36;;;;;;;7.13;0.60;;;12.60;99.90;;;13.30;59.02;100177.59;4841259;28;97349;-51
2022/11/24 03:21:02;;;;;;;1.47;0.53;;;12.60;99.90;;;13.19;59.21;100182.66;4843077;28;97159;-47
2022/11/24 03:23:28;;;;;;;0.77;0.60;;;12.50;99.90;;;13.24;60.06;100177.94;4839911;28;97133;-48
2022/11/24 03:25:54;;;;;;;1.73;0.77;;;12.50;99.90;;;13.18;59.19;100183.59;4843569;28;97535;-49
2022/11/24 03:28:20;;;;;;;1.60;0.40;;;12.50;99.90;;;13.18;59.46;100188.88;4843315;28;98829;-50
2022/11/24 03:30:48;;;;;;;3.10;0.30;;;12.50;99.90;;;13.15;59.90;100183.69;4839574;28;98215;-44
2022/11/24 03:33:13;;;;;;;3.57;0.77;;;12.40;99.90;;;13.15;59.76;100181.06;4849580;28;97481;-48
2022/11/24 03:35:39;;;;;;;1.37;0.53;;;12.40;99.90;;;13.18;59.98;100180.06;4846252;28;96855;-45
2022/11/24 03:38:05;;;;;;;0.20;0.20;;;12.40;99.90;;;13.16;60.05;100189.84;4846508;28;97530;-50
2022/11/24 03:40:31;;;;;;;1.60;0.80;;;12.40;99.90;;;13.16;60.06;100185.41;4846947;28;96842;-45
2022/11/24 03:42:56;;;;;;;0.77;0.40;;;12.50;99.90;;;13.18;59.80;100193.28;4843245;28;96639;-45
2022/11/24 03:45:22;;;;;;;0.67;0.10;;;12.50;99.90;;;13.17;59.91;100187.16;4843932;28;97515;-46
2022/11/24 03:47:51;;;;;;;0.37;0.20;;;12.50;99.90;;;13.20;59.81;100202.91;4827308;28;97608;-49
2022/11/24 03:50:17;;;;;;;2.53;0.43;;;12.50;99.90;;;13.27;59.86;100198.97;4846586;28;104293;-49
2022/11/24 03:52:42;;;;;;;0.67;0.30;;;12.50;99.90;;;13.31;60.01;100189.94;4839941;28;97056;-51
2022/11/24 03:55:08;;;;;;;0.40;0.27;;;12.60;99.90;;;13.32;59.19;100191.66;4842257;28;97382;-46
2022/11/24 03:57:34;;;;;;;0.40;0.33;;;12.60;99.90;;;13.28;59.29;100195.38;4836565;28;97635;-51
2022/11/24 04:00:00;;;;;;;6.07;0.50;;;12.60;99.90;;;13.19;59.65;100195.91;4838043;28;97626;-56
2022/11/24 04:02:26;;;;;;;2.43;0.43;;;12.50;99.90;;;13.23;59.93;100202.72;4844318;28;97487;-57
2022/11/24 04:04:51;;;;;;;0.50;0.30;;;12.50;99.90;;;13.22;60.33;100205.47;4820203;29;97678;-52
2022/11/24 04:07:17;;;;;;;4.40;0.43;;;12.50;99.90;;;13.19;60.34;100216.22;4840031;28;99270;-48
2022/11/24 04:09:44;;;;;;;0.77;0.40;;;12.50;99.90;;;13.20;60.51;100218.78;4831551;28;97576;-48
2022/11/24 04:14:54;;;;;;;0.50;0.33;;;12.50;99.90;;;13.22;60.07;100206.31;4843213;28;96702;-49
2022/11/24 04:17:20;;;;;;;7.77;0.57;;;12.50;99.90;;;13.21;60.25;100204.59;4845262;28;113205;-47
2022/11/24 04:19:45;;;;;;;3.40;0.93;;;12.60;99.90;;;13.18;60.14;100215.38;4838769;28;97017;-45
2022/11/24 04:22:11;;;;;;;4.43;0.57;;;12.50;99.90;;;13.21;60.46;100209.91;4843295;28;107603;-45
2022/11/24 04:24:37;;;;;;;4.50;0.40;;;12.50;99.90;;;13.20;60.37;100208.19;4843773;28;96801;-47
2022/11/24 04:27:03;;;;;;;5.40;0.43;;;12.60;99.90;;;13.18;60.94;100215.38;4846468;28;97085;-45
2022/11/24 04:29:28;;;;;;;1.07;0.97;;;12.60;99.90;;;13.26;60.33;100212.28;4817001;28;111486;-51
2022/11/24 04:31:54;;;;;;;3.77;0.87;;;12.60;99.90;;;13.30;60.08;100214.69;4845030;28;103149;-46
2022/11/24 04:34:20;;;;;;;1.93;0.40;;;12.70;99.90;;;13.33;59.88;100214.53;4840980;28;98310;-44
2022/11/24 04:36:46;;;;;;;1.87;0.70;;;12.70;99.90;;;13.36;59.68;100219.66;4838309;28;97349;-47
2022/11/24 04:39:11;;;;;;;2.23;0.70;;;12.70;99.90;;;13.38;59.78;100217.78;4840677;28;98916;-45
2022/11/24 04:41:37;;;;;;;1.33;0.67;;;12.80;99.90;;;13.42;60.14;100217.63;4833142;28;96762;-44
2022/11/24 04:44:03;;;;;;;3.50;0.40;;;12.80;99.90;;;13.48;59.77;100225.25;4843037;28;104321;-44
2022/11/24 04:46:29;;;;;;;1.03;0.80;;;12.90;99.90;;;13.52;59.68;100224.13;4848226;28;98012;-47
2022/11/24 04:48:54;;;;;;;0.67;0.40;;;13.00;99.90;;;13.55;59.33;100229.25;4839695;28;113156;-48
2022/11/24 04:51:20;;;;;;;2.20;0.50;;;13.00;99.90;;;13.60;59.75;100235.19;4849217;28;97108;-44
2022/11/24 04:53:48;;;;;;;2.10;0.20;;;13.00;99.90;;;13.67;59.79;100239.19;4841464;28;100885;-46
2022/11/24 04:56:14;;;;;;;1.40;0.30;;;13.00;99.90;;;13.66;59.46;100246.28;4841165;28;99760;-47
2022/11/24 04:58:39;;;;;;;1.93;0.73;;;13.00;99.90;;;13.63;59.62;100245.63;4842504;28;97944;-45
2022/11/24 05:01:07;;;;;;;0.30;0.30;;;13.00;99.90;;;13.65;59.85;100241.06;4842081;28;103643;-45
2022/11/24 05:03:34;;;;;;;1.07;0.47;;;13.00;99.90;;;13.68;60.10;100248.84;4853548;28;96780;-48
2022/11/24 05:06:00;;;;;;;1.03;0.50;;;13.00;99.90;;;13.67;59.54;100249.78;4852501;28;99937;-56
2022/11/24 05:08:26;;;;;;;4.90;0.47;;;13.00;99.90;;;13.64;59.77;100255.28;4852718;28;106818;-49
2022/11/24 05:10:51;;;;;;;1.53;0.50;;;12.90;99.90;;;13.61;59.60;100250.16;4843230;28;97124;-55
2022/11/24 05:13:17;;;;;;;0.30;0.30;;;12.90;99.90;;;13.74;59.15;100256.47;4843578;28;105427;-55
2022/11/24 05:15:43;;;;;;;1.80;0.60;;;13.00;99.90;;;13.68;59.41;100264.75;4838719;28;107154;-53
2022/11/24 05:18:14;;;;;;;2.80;0.57;;;13.00;99.90;;;13.61;59.42;100268.69;4845354;28;105075;-48
2022/11/24 05:20:40;;;;;;;1.30;0.50;;;13.00;99.90;;;13.56;59.72;100268.06;4842798;28;97197;-50
2022/11/24 05:23:07;;;;;;;2.67;0.63;;;12.90;99.90;;;13.59;59.89;100265.25;4843499;28;97504;-54
2022/11/24 05:25:34;;;;;;;0.77;0.50;;;12.90;99.90;;;13.55;60.05;100271.66;4835730;28;97648;-55
2022/11/24 05:28:08;;;;;;;1.20;0.60;;;12.90;99.90;;;13.55;59.34;100282.25;4844124;28;97305;-53
2022/11/24 05:30:38;;;;;;;3.40;0.60;;;12.80;99.90;;;13.47;60.16;100285.34;4846237;28;96809;-48
2022/11/24 05:33:07;;;;;;;0.40;0.40;;;12.80;99.90;;;13.42;60.51;100292.66;4845117;28;97210;-49
2022/11/24 05:35:35;;;;;;;0.70;0.27;;;12.80;99.90;;;13.33;60.75;100291.38;4843130;28;97343;-52
2022/11/24 05:38:02;;;;;;;8.37;1.03;;;12.70;99.90;;;13.23;61.16;100292.78;4843570;28;103347;-52
2022/11/24 05:40:29;;;;;;;1.07;0.63;;;12.60;99.90;;;13.18;61.32;100289.53;4841826;28;97499;-54
2022/11/24 05:42:55;;;;;;;0.80;0.53;;;12.60;99.90;;;13.12;61.53;100305.69;4825936;29;97429;-48
2022/11/24 05:45:21;;;;;;;1.47;0.43;;;12.60;99.90;;;13.07;61.87;100302.41;4837730;28;97019;-52
2022/11/24 05:47:49;;;;;;;3.93;0.37;;;12.60;99.90;;;13.10;62.08;100305.75;4838426;28;96952;-48
2022/11/24 05:50:18;;;;;;;0.70;0.37;;;12.60;99.90;;;13.10;62.13;100303.09;4843880;28;97214;-51
2022/11/24 05:52:44;;;;;;;2.73;1.23;;;12.50;99.90;;;13.15;61.96;100310.81;4840010;28;97334;-51
2022/11/24 05:55:10;;;;;;;0.97;0.47;;;12.60;99.90;;;13.13;61.19;100312.69;4841085;28;97700;-53
2022/11/24 05:57:36;;;;;;;3.83;0.40;;;12.60;99.90;;;13.17;61.75;100313.41;4836062;28;104286;-50
2022/11/24 06:00:06;;;;;;;3.87;1.03;;;12.60;99.90;;;13.18;60.45;100310.72;4840816;28;104183;-48
2022/11/24 06:02:31;;;;;;;3.50;0.37;;;12.70;99.90;;;13.18;60.70;100321.31;4847132;28;97223;-46
2022/11/24 06:04:57;;;;;;;4.03;0.47;;;12.70;99.90;;;13.29;60.10;100318.94;4846737;28;117064;-48
2022/11/24 06:07:23;;;;;;;1.57;0.47;;;12.90;99.90;;;13.32;58.53;100323.22;4840847;28;105774;-50
2022/11/24 06:09:49;;;;;;;3.77;0.93;;;12.90;99.90;;;13.42;59.43;100318.28;4840482;28;102283;-48
2022/11/24 06:12:15;;;;;;;2.93;0.63;;;13.00;99.90;;;13.44;58.80;100332.31;4845078;28;97106;-51
2022/11/24 06:14:41;;;;;;;1.10;0.40;;;13.00;99.90;;;13.58;59.37;100328.00;4840101;28;96946;-56
2022/11/24 06:17:12;;;;;;;0.73;0.20;;;13.10;99.90;;;13.62;58.62;100331.34;4845889;28;97569;-49
2022/11/24 06:19:37;;;;;;;0.67;0.27;;;13.10;99.90;;;13.71;58.92;100330.84;4841087;28;97145;-50
2022/11/24 06:22:03;;;;;;;0.50;0.30;;;13.20;99.90;;;13.64;57.41;100338.28;4844594;28;97070;-54
2022/11/24 06:24:29;;;;;;;2.27;0.30;;;13.20;99.90;;;13.66;57.77;100344.34;4841894;28;118430;-55
2022/11/24 06:26:55;;;;;;;0.50;0.30;;;13.20;99.90;;;13.71;57.96;100346.75;4839847;28;113704;-51
2022/11/24 06:29:20;;;;;;;0.73;0.27;;;13.20;99.90;;;13.67;57.92;100345.22;4845592;28;97198;-53
2022/11/24 06:31:46;;;;;;;0.53;0.43;;;13.20;99.90;;;13.69;57.94;100359.22;4845914;28;97875;-44
2022/11/24 06:34:12;;;;;;;1.60;0.40;;;13.20;99.90;;;13.66;57.94;100359.41;4848669;28;96833;-49
2022/11/24 06:36:39;;;;;;;0.10;0.10;;;13.20;99.90;;;13.70;57.22;100360.94;4844667;28;97076;-52
2022/11/24 06:39:06;;;;;;;0.57;0.30;;;13.30;99.90;;;13.80;57.26;100371.91;4847960;28;99584;-48
2022/11/24 06:41:32;;;;;;;1.23;0.20;;;13.40;99.90;;;13.78;56.39;100374.66;4844982;28;99125;-53
2022/11/24 06:43:57;;;;;;;0.30;0.10;;;13.40;99.90;;;13.80;56.58;100378.06;4840519;28;97041;-48
2022/11/24 06:46:23;;;;;;;3.50;0.43;;;13.40;99.90;;;13.81;56.61;100378.94;4848074;28;107455;-48
2022/11/24 06:48:52;;;;;;;2.20;0.10;;;13.40;99.90;;;13.82;57.12;100384.16;4843096;28;96748;-52
2022/11/24 06:51:18;;;;;;;0.47;0.33;;;13.40;99.90;;;13.84;57.42;100382.28;4845963;28;96979;-47
2022/11/24 06:53:45;;;;;;;0.50;0.20;;;13.40;99.90;;;13.86;58.31;100383.03;4846081;28;96937;-52
2022/11/24 06:56:18;;;;;;;0.50;0.20;;;13.40;99.90;;;13.88;57.89;100381.16;4844276;28;97828;-48
2022/11/24 06:58:47;;;;;;;0.30;0.30;;;13.40;99.90;;;13.91;57.88;100381.03;4830962;28;97191;-47
2022/11/24 07:01:22;;;;;;;0.30;0.07;;;13.40;99.90;;;13.86;57.71;100382.19;4847402;28;97504;-49
2022/11/24 07:03:49;;;;;;;1.03;0.40;;;13.30;99.90;;;13.81;57.14;100385.09;4837170;28;97280;-46
2022/11/24 07:06:16;;;;;;;0.10;0.10;;;13.30;99.90;;;13.77;56.07;100383.56;4829440;28;100600;-52
2022/11/24 07:08:42;;;;;;;0.00;0.00;;;13.30;99.90;;;13.67;56.20;100398.22;4835759;28;97078;-49
2022/11/24 07:11:12;;;;;;;1.00;0.10;;;13.20;99.90;;;13.67;56.87;100403.50;4842211;28;97254;-50
2022/11/24 07:13:38;;;;;;;0.00;0.00;;;13.20;99.90;;;13.68;57.09;100407.88;4844855;28;97345;-53
2022/11/24 07:16:33;;;;;;;0.57;0.20;;;13.20;99.90;;;13.60;56.26;100412.75;4833629;28;103461;-46
2022/11/24 07:18:59;;;;;;;1.10;0.17;;;13.00;99.90;;;13.58;56.69;100420.75;4819412;28;96957;-50
2022/11/24 07:21:27;;;;;;;1.80;0.20;;;13.00;99.90;;;13.65;58.04;100431.91;4844832;28;97193;-55
2022/11/24 07:23:55;;;;;;;0.10;0.10;;;13.10;99.90;;;13.58;56.77;100434.00;4839949;28;98958;-48
2022/11/24 07:26:24;;;;;;;4.57;0.33;;;13.00;99.90;;;13.54;56.11;100431.59;4839533;28;96754;-51
2022/11/24 07:28:50;;;;;;;0.73;0.10;;;13.00;99.90;;;13.51;56.97;100440.56;4838505;28;97610;-55
2022/11/24 07:31:19;;;;;;;0.10;0.10;;;12.90;99.90;;;13.54;56.72;100444.84;4825856;28;97357;-50
2022/11/24 07:33:50;;;;;;;0.20;0.00;;;13.00;99.90;;;13.63;56.87;100454.97;4837241;28;98554;-49
2022/11/24 07:36:17;;;;;;;1.03;0.10;;;13.10;99.90;;;13.61;57.77;100467.47;4841727;28;97048;-51
2022/11/24 07:38:43;;;;;;;0.10;0.10;;;13.00;99.90;;;13.66;57.64;100470.72;4834730;28;96929;-54
2022/11/24 07:41:11;;;;;;;2.97;0.20;;;13.00;99.90;;;13.60;56.36;100468.41;4833303;28;97453;-57
2022/11/24 07:43:38;;;;;;;0.53;0.27;;;13.00;99.90;;;13.65;55.70;100471.66;4841050;28;97414;-54
2022/11/24 07:46:06;;;;;;;3.00;0.10;;;13.10;99.90;;;13.73;56.51;100471.25;4837179;28;96776;-48
2022/11/24 07:48:33;;;;;;;0.63;0.10;;;13.20;99.90;;;13.63;55.88;100476.19;4838060;28;97024;-53
2022/11/24 07:51:00;;;;;;;0.30;0.10;;;13.10;99.90;;;13.58;56.24;100480.84;4837590;28;97348;-52
2022/11/24 07:53:27;;;;;;;0.17;0.00;;;13.10;99.90;;;13.62;56.55;100485.94;4841927;28;99986;-51
2022/11/24 07:56:01;;;;;;;0.10;0.10;;;13.10;99.90;;;13.60;55.91;100500.19;4829511;28;99095;-52
2022/11/24 07:58:33;;;;;;;0.00;0.00;;;13.10;99.90;;;13.64;56.29;100504.41;4838395;28;97959;-50
2022/11/24 08:01:09;;;;;;;1.87;0.20;;;13.10;99.90;;;13.64;56.94;100507.03;4835469;28;97324;-49
2022/11/24 08:03:34;;;;;;;0.03;0.03;;;13.10;99.90;;;13.65;55.95;100517.56;4838936;28;98825;-46
2022/11/24 08:06:00;;;;;;;0.10;0.10;;;13.10;99.90;;;13.53;55.65;100518.19;4843338;28;98176;-50
2022/11/24 08:08:26;;;;;;;0.70;0.10;;;13.00;99.90;;;13.59;57.63;100520.50;4845985;28;106570;-54
2022/11/24 08:10:52;;;;;;;0.57;0.20;;;13.10;99.90;;;13.58;56.95;100525.88;4844933;28;97293;-54
2022/11/24 08:13:18;;;;;;;0.27;0.20;;;13.10;99.90;;;13.64;57.84;100530.91;4844536;28;108778;-53
2022/11/24 08:15:44;;;;;;;0.20;0.20;;;13.10;99.90;;;13.60;55.41;100537.31;4843909;28;97787;-55
2022/11/24 08:18:10;;;;;;;0.73;0.13;;;13.10;99.90;;;13.69;55.44;100544.78;4846591;28;96779;-52
2022/11/24 08:20:36;;;;;;;0.47;0.20;;;13.20;99.90;;;13.83;57.65;100539.63;4849111;28;97296;-53
2022/11/24 08:23:02;;;;;;;0.67;0.20;;;13.30;99.90;;;13.83;55.18;100542.28;4841215;28;97081;-53
2022/11/24 08:25:32;;;;;;;0.30;0.30;;;13.40;99.90;;;13.97;56.12;100544.22;4849679;28;99392;-51
2022/11/24 08:28:02;;;;;;;0.73;0.43;;;13.50;99.90;;;13.77;55.72;100545.25;4840550;28;99349;-52
2022/11/24 08:30:29;;;;;;;8.70;4.80;;;13.40;99.90;;;13.66;55.89;100550.22;4840891;28;97129;-51
2022/11/24 08:32:58;;;;;;;1.40;0.20;;;13.20;99.90;;;13.70;56.55;100549.13;4846149;28;97594;-53
2022/11/24 08:35:24;;;;;;;0.73;0.30;;;13.20;99.90;;;13.70;55.70;100551.78;4842981;28;98457;-53
2022/11/24 08:37:50;;;;;;;1.70;0.30;;;13.30;99.90;;;13.78;55.16;100562.00;4837679;28;96815;-52
2022/11/24 08:40:16;;;;;;;0.60;0.30;;;13.40;99.90;;;13.70;55.34;100559.72;4844688;28;97120;-49
2022/11/24 08:42:42;;;;;;;0.50;0.10;;;13.30;99.90;;;13.76;56.29;100564.75;4839841;28;97735;-48
2022/11/24 08:45:08;;;;;;;0.87;0.10;;;13.40;99.90;;;13.79;56.58;100566.38;4837681;28;97272;-57
2022/11/24 08:47:34;;;;;;;0.10;0.03;;;13.40;99.90;;;13.99;56.56;100575.03;4846243;28;97214;-50
2022/11/24 08:49:59;;;;;;;0.30;0.10;;;13.50;99.90;;;13.91;55.69;100566.63;4842576;28;104014;-49
2022/11/24 08:52:25;;;;;;;0.30;0.20;;;13.50;99.90;;;13.90;56.21;100575.53;4842528;28;108712;-51
2022/11/24 08:54:51;;;;;;;1.30;0.20;;;13.50;99.90;;;13.88;55.80;100582.66;4842656;28;117167;-53
2022/11/24 08:57:17;;;;;;;0.20;0.10;;;13.50;99.90;;;13.96;55.67;100585.78;4836155;28;97929;-58
2022/11/24 08:59:42;;;;;;;2.90;0.40;;;13.60;99.90;;;14.00;56.39;100581.19;4842285;28;102322;-49
2022/11/24 09:02:12;;;;;;;0.57;0.50;;;13.50;99.90;;;13.95;56.08;100584.09;4836947;28;98054;-46
2022/11/24 09:04:38;;;;;;;0.10;0.10;;;13.50;99.90;;;14.25;56.55;100591.41;4838184;28;97081;-54
2022/11/24 09:07:04;;;;;;;0.93;0.00;;;13.80;99.90;;;14.41;54.75;100594.97;4833426;28;101739;-51
2022/11/24 09:09:30;;;;;;;0.77;0.10;;;14.10;99.90;;;14.33;55.83;100594.53;4840946;28;97469;-49
2022/11/24 09:11:56;;;;;;;0.50;0.10;;;14.00;99.90;;;14.33;55.35;100605.16;4838636;28;97514;-52
2022/11/24 09:14:22;;;;;;;0.83;0.10;;;13.90;99.90;;;14.34;56.14;100598.91;4837760;28;120085;-54
2022/11/24 09:16:48;;;;;;;0.77;0.10;;;13.90;99.90;;;14.45;54.62;100599.22;4832903;28;100040;-52
2022/11/24 09:19:13;;;;;;;0.80;0.50;;;14.10;99.90;;;14.36;55.16;100610.28;4840831;28;97701;-53
2022/11/24 09:21:39;;;;;;;1.43;0.07;;;14.00;99.90;;;14.26;55.41;100603.72;4840577;28;101888;-51
2022/11/24 09:24:06;;;;;;;1.30;0.40;;;13.90;99.90;;;14.31;54.83;100609.66;4834997;28;126305;-51
2022/11/24 09:26:35;;;;;;;0.17;0.10;;;13.90;99.90;;;14.68;55.63;100618.38;4847363;28;96981;-50
2022/11/24 09:29:04;;;;;;;4.03;0.20;;;14.30;99.90;;;14.71;55.11;100620.88;4834728;28;97060;-55
2022/11/24 09:31:33;;;;;;;0.20;0.13;;;14.40;99.90;;;14.84;53.06;100628.09;4828947;28;98465;-49
2022/11/24 09:33:59;;;;;;;0.93;0.40;;;14.70;99.90;;;14.91;54.75;100633.09;4844733;28;98509;-48
2022/11/24 09:36:26;;;;;;;0.30;0.20;;;14.60;99.90;;;15.30;53.94;100630.03;4847974;28;96960;-51
2022/11/24 09:38:52;;;;;;;0.23;0.20;;;15.10;99.90;;;15.34;52.33;100639.56;4844500;28;98351;-51
2022/11/24 09:42:01;;;;;;;2.20;0.40;;;15.20;99.90;;;15.48;53.29;100634.34;4840626;28;97610;-55
2022/11/24 09:45:09;;;;;;;0.60;0.30;;;15.20;99.90;;;15.57;50.98;100649.75;4838376;28;103011;-52
2022/11/24 09:47:50;;;;;;;0.87;0.20;;;15.40;99.90;;;15.52;52.46;100651.84;4824701;28;97451;-55
2022/11/24 09:50:27;;;;;;;1.07;0.20;;;15.30;99.90;;;15.65;50.65;100652.88;4824363;29;97463;-52
2022/11/24 09:53:34;;;;;;;3.20;0.97;;;15.60;99.90;;;15.63;52.90;100653.94;4838812;28;97890;-48
2022/11/24 09:56:28;;;;;;;0.30;0.20;;;15.30;99.90;;;15.72;51.76;100656.91;4821459;29;100963;-48
2022/11/24 09:59:16;;;;;;;1.80;0.30;;;15.60;99.90;;;15.46;51.18;100660.13;4821929;28;97375;-52
2022/11/24 10:01:44;;;;;;;0.40;0.20;;;15.30;99.90;;;15.70;52.63;100664.13;4838991;28;97532;-51
2022/11/24 10:04:27;;;;;;;0.30;0.27;;;15.50;99.90;;;15.85;52.19;100669.50;4838359;28;103998;-49
2022/11/24 10:07:22;;;;;;;0.20;0.10;;;15.60;99.90;;;15.93;51.98;100665.47;4820444;29;97401;-49
2022/11/24 10:10:14;;;;;;;1.03;0.20;;;15.80;99.90;;;16.10;50.07;100664.50;4826346;29;97552;-47
2022/11/24 10:13:45;;;;;;;0.63;0.20;;;16.00;99.90;;;15.97;51.24;100669.66;4821410;28;96732;-47
2022/11/24 10:16:22;;;;;;;0.47;0.30;;;15.80;99.90;;;15.93;51.93;100684.09;4839075;28;102310;-52
2022/11/24 10:19:00;;;;;;;3.43;0.40;;;15.60;99.90;;;16.06;51.44;100669.13;4840068;28;97332;-50
2022/11/24 10:21:47;;;;;;;4.63;0.53;;;15.90;99.90;;;16.21;51.19;100679.84;4843784;28;97882;-49